Time;durP1;ratioP1;P1;durP2;ratioP2;P2;SDS_P1;SDS_P2;PMS_P1;PMS_P2;Temp;Humidity;BMP_temperature;BMP_pressure;BME280_temperature;BME280_humidity;BME280_pressure;Samples;Min_cycle;Max_cycle;Signal;HPM_P1;HPM_P2
2021/11/23 00:04:53;;;;;;;1.67;1.48;;;;;;;0.39;81.61;101189.88;10480780;28;20045;-74
2021/11/23 00:09:55;;;;;;;1.63;1.40;;;;;;;0.42;81.84;101188.25;10499306;28;20071;-74
2021/11/23 00:14:57;;;;;;;2.17;1.77;;;;;;;0.42;81.09;101193.41;10487897;28;20054;-74
2021/11/23 00:19:59;;;;;;;2.85;1.67;;;;;;;0.47;80.79;101191.84;10489008;28;20052;-74
2021/11/23 00:25:03;;;;;;;2.72;1.70;;;;;;;0.59;79.88;101195.59;10518056;23;20055;-74
2021/11/23 00:30:06;;;;;;;2.70;1.42;;;;;;;0.52;80.24;101189.38;10488444;28;20052;-75
2021/11/23 00:35:08;;;;;;;3.25;1.88;;;;;;;0.44;80.06;101190.88;10506048;28;20123;-75
2021/11/23 00:40:10;;;;;;;2.25;1.50;;;;;;;0.52;79.85;101185.91;10504720;28;20405;-74
2021/11/23 00:45:12;;;;;;;2.05;1.80;;;;;;;0.34;80.23;101186.28;10487395;28;20140;-75
2021/11/23 00:50:16;;;;;;;2.22;1.70;;;;;;;0.32;80.44;101188.84;10506857;28;20040;-74
2021/11/23 00:55:18;;;;;;;3.30;1.63;;;;;;;0.18;80.60;101188.44;10487815;28;20543;-74
2021/11/23 01:00:21;;;;;;;2.50;1.83;;;;;;;-0.13;81.80;101191.84;10505978;28;20100;-74
2021/11/23 01:05:22;;;;;;;2.08;1.83;;;;;;;-0.26;82.80;101188.00;10487334;28;20045;-75
2021/11/23 01:10:24;;;;;;;2.35;1.95;;;;;;;-0.32;82.71;101198.13;10503978;28;20047;-74
2021/11/23 01:15:26;;;;;;;3.75;1.88;;;;;;;-0.37;83.92;101189.38;10503052;28;20104;-74
2021/11/23 01:20:28;;;;;;;3.55;2.22;;;;;;;-0.43;84.25;101188.31;10504433;28;20190;-73
2021/11/23 01:25:31;;;;;;;5.38;2.05;;;;;;;-0.46;84.92;101189.09;10502159;28;20118;-73
2021/11/23 01:30:32;;;;;;;1.77;1.58;;;;;;;-0.48;84.39;101175.25;10486062;28;20059;-74
2021/11/23 01:35:34;;;;;;;2.30;2.10;;;;;;;-0.53;84.26;101172.53;11465960;22;20091;-80
2021/11/23 01:40:37;;;;;;;2.10;1.90;;;;;;;-0.60;84.47;101173.16;10552823;28;20032;-81
2021/11/23 01:45:40;;;;;;;1.98;1.73;;;;;;;-0.42;83.19;101154.78;10552785;28;20028;-80
2021/11/23 01:50:42;;;;;;;3.20;2.50;;;;;;;-0.18;81.46;101159.78;10544531;23;20436;-74
2021/11/23 01:55:44;;;;;;;1.77;1.50;;;;;;;-0.27;81.50;101162.09;10487133;28;20048;-74
2021/11/23 02:00:46;;;;;;;2.05;1.73;;;;;;;-0.17;80.98;101166.72;10504603;28;20067;-73
2021/11/23 02:05:49;;;;;;;2.88;2.10;;;;;;;-0.19;80.92;101160.63;10504034;28;20404;-73
2021/11/23 02:10:50;;;;;;;4.32;1.60;;;;;;;-0.24;80.83;101159.63;10486531;28;20044;-75
2021/11/23 02:15:54;;;;;;;2.40;1.60;;;;;;;-0.41;81.89;101168.56;10502692;28;20051;-74
2021/11/23 02:20:56;;;;;;;2.75;2.10;;;;;;;-0.52;82.63;101173.41;10486430;28;20397;-73
2021/11/23 02:25:58;;;;;;;2.80;1.95;;;;;;;-0.62;82.85;101167.09;10503998;28;20112;-74
2021/11/23 02:31:01;;;;;;;2.67;2.10;;;;;;;-0.63;82.88;101159.25;10501988;28;20075;-74
2021/11/23 02:36:05;;;;;;;4.55;3.03;;;;;;;-0.65;83.59;101166.09;10502321;28;20052;-74
2021/11/23 02:41:11;;;;;;;3.88;2.88;;;;;;;-0.61;84.16;101168.81;10486357;28;20139;-73
2021/11/23 02:46:14;;;;;;;2.30;1.80;;;;;;;-0.55;83.63;101170.72;10503947;28;20048;-73
2021/11/23 02:51:16;;;;;;;2.97;2.20;;;;;;;-0.39;81.93;101166.91;10484508;28;20036;-73
2021/11/23 02:56:19;;;;;;;5.00;2.97;;;;;;;-0.45;82.41;101171.88;10484187;28;20059;-73
2021/11/23 03:01:24;;;;;;;2.75;2.08;;;;;;;-0.50;81.99;101161.41;10503022;28;20039;-75
2021/11/23 03:06:26;;;;;;;4.95;2.15;;;;;;;-0.66;83.30;101165.22;10502507;28;20489;-74
2021/11/23 03:11:28;;;;;;;5.93;2.15;;;;;;;-0.88;83.59;101173.13;10502860;28;20041;-74
2021/11/23 03:16:31;;;;;;;2.90;2.28;;;;;;;-1.13;85.06;101181.72;10467418;28;20140;-74
2021/11/23 03:21:35;;;;;;;3.60;3.28;;;;;;;-1.18;86.22;101184.16;10502719;28;20040;-73
2021/11/23 03:26:37;;;;;;;3.40;2.72;;;;;;;-0.76;86.11;101178.66;10468127;28;20458;-73
2021/11/23 03:31:38;;;;;;;2.03;1.83;;;;;;;-0.88;84.82;101191.19;10502072;28;20111;-74
2021/11/23 03:36:42;;;;;;;2.72;2.47;;;;;;;-0.66;85.00;101179.84;10503103;28;20072;-74
2021/11/23 03:41:44;;;;;;;3.60;2.55;;;;;;;-0.79;84.90;101179.44;10483572;28;20072;-74
2021/11/23 03:46:46;;;;;;;4.68;2.90;;;;;;;-0.71;84.97;101166.75;10503796;28;20083;-74
2021/11/23 03:51:47;;;;;;;4.43;2.72;;;;;;;-0.73;84.68;101162.41;10509729;28;20040;-73
2021/11/23 03:56:50;;;;;;;3.60;3.03;;;;;;;-0.88;85.74;101168.81;10510385;28;20064;-74
2021/11/23 04:01:52;;;;;;;3.72;2.50;;;;;;;-0.83;85.51;101176.72;10492357;28;20040;-73
2021/11/23 04:06:54;;;;;;;4.53;3.22;;;;;;;-0.85;85.15;101174.06;10491259;28;20044;-73
2021/11/23 04:11:56;;;;;;;3.30;3.00;;;;;;;-0.92;85.41;101174.72;10506863;28;20040;-74
2021/11/23 04:16:58;;;;;;;3.05;2.58;;;;;;;-0.92;84.94;101174.72;10488843;28;20132;-73
2021/11/23 04:22:02;;;;;;;3.83;3.33;;;;;;;-0.97;85.55;101168.53;10506412;28;20041;-74
2021/11/23 04:27:05;;;;;;;3.47;2.90;;;;;;;-0.92;85.47;101184.16;10506477;28;20047;-74
2021/11/23 04:32:07;;;;;;;3.22;2.92;;;;;;;-0.88;84.70;101158.50;10506518;28;20032;-73
2021/11/23 04:37:09;;;;;;;3.92;2.55;;;;;;;-0.99;85.39;101149.50;10506222;28;20083;-73
2021/11/23 04:42:11;;;;;;;3.83;3.10;;;;;;;-1.06;85.36;101147.56;10487755;28;20046;-73
2021/11/23 04:47:14;;;;;;;5.13;3.65;;;;;;;-1.06;85.74;101139.84;10487294;28;20139;-74
2021/11/23 04:52:15;;;;;;;9.48;3.95;;;;;;;-1.09;86.07;101132.84;10505870;28;20075;-74
2021/11/23 04:57:17;;;;;;;4.55;4.03;;;;;;;-1.09;85.68;101132.84;10470933;28;20068;-74
2021/11/23 05:02:19;;;;;;;4.55;3.95;;;;;;;-0.86;85.12;101133.59;10504740;28;20033;-74
2021/11/23 05:07:21;;;;;;;4.32;3.75;;;;;;;-0.64;84.58;101127.41;10469993;28;20049;-74
2021/11/23 05:12:23;;;;;;;4.30;3.90;;;;;;;-0.61;83.91;101126.63;10504842;28;20546;-74
2021/11/23 05:17:25;;;;;;;3.53;3.22;;;;;;;-0.73;84.07;101114.22;10506908;28;20040;-73
2021/11/23 05:22:27;;;;;;;4.90;3.72;;;;;;;-0.62;83.02;101119.69;10507703;28;20029;-74
2021/11/23 05:27:33;;;;;;;4.75;3.60;;;;;;;-0.56;83.06;101113.03;10507749;28;20049;-73
2021/11/23 05:32:35;;;;;;;4.75;3.92;;;;;;;-0.67;83.55;101114.38;10508041;28;20552;-74
2021/11/23 05:37:38;;;;;;;9.52;4.30;;;;;;;-0.48;83.92;101120.16;10489648;28;20516;-73
2021/11/23 05:42:40;;;;;;;6.18;4.10;;;;;;;-0.35;82.64;101125.72;10490090;28;20040;-74
2021/11/23 05:47:42;;;;;;;4.70;4.22;;;;;;;-0.48;82.89;101118.44;10490201;28;20056;-74
2021/11/23 05:52:44;;;;;;;7.20;4.88;;;;;;;-0.45;83.25;101109.88;10508695;28;20041;-73
2021/11/23 05:57:46;;;;;;;7.00;6.32;;;;;;;-0.52;83.93;101111.41;10489580;28;20052;-74
2021/11/23 06:02:48;;;;;;;4.93;4.43;;;;;;;0.13;81.80;101108.97;10489263;28;20040;-74
2021/11/23 06:07:50;;;;;;;6.68;4.05;;;;;;;0.27;80.35;101110.25;10506851;28;20051;-74
2021/11/23 06:12:52;;;;;;;4.80;4.00;;;;;;;0.69;78.25;101112.19;10507004;28;20047;-74
2021/11/23 06:18:00;;;;;;;4.63;3.78;;;;;;;0.81;77.20;101122.00;10504606;28;20127;-74
2021/11/23 06:23:03;;;;;;;4.38;3.97;;;;;;;0.70;76.86;101124.28;10487864;28;20048;-75
2021/11/23 06:28:05;;;;;;;4.75;4.35;;;;;;;0.41;78.43;101131.31;10506001;28;20052;-73
2021/11/23 06:33:07;;;;;;;7.57;4.90;;;;;;;0.43;79.17;101142.56;10506027;28;20045;-74
2021/11/23 06:38:09;;;;;;;8.02;4.47;;;;;;;0.38;78.13;101146.75;10505459;28;20083;-74
2021/11/23 06:43:11;;;;;;;3.83;3.53;;;;;;;0.29;78.48;101151.66;10506217;28;20037;-73
2021/11/23 06:48:13;;;;;;;5.75;5.15;;;;;;;0.36;78.03;101156.19;10508131;28;20045;-74
2021/11/23 06:53:16;;;;;;;9.55;5.18;;;;;;;0.17;79.16;101142.72;10489517;28;20048;-74
2021/11/23 06:58:19;;;;;;;5.20;4.70;;;;;;;0.04;80.28;101150.09;10504973;28;20131;-74
2021/11/23 07:03:21;;;;;;;7.28;5.05;;;;;;;0.08;80.29;101151.94;10504255;28;20107;-75
2021/11/23 07:08:23;;;;;;;7.65;5.22;;;;;;;0.27;79.65;101161.06;10504176;28;20058;-73
2021/11/23 07:13:25;;;;;;;4.57;3.20;;;;;;;0.58;77.28;101165.41;10504551;28;20037;-73
2021/11/23 07:18:27;;;;;;;3.13;2.10;;;;;;;0.92;75.18;101161.97;10503477;28;20433;-74
2021/11/23 07:23:29;;;;;;;3.33;2.55;;;;;;;1.24;73.58;101174.00;10502598;28;20032;-73
2021/11/23 07:28:30;;;;;;;3.05;2.40;;;;;;;1.50;72.12;101179.78;10503235;28;20438;-74
2021/11/23 07:33:32;;;;;;;2.70;2.28;;;;;;;1.51;72.52;101181.56;10483945;28;20051;-75
2021/11/23 07:38:34;;;;;;;3.92;2.10;;;;;;;1.69;72.21;101188.00;10485649;28;20131;-77
2021/11/23 07:43:36;;;;;;;10.23;4.45;;;;;;;1.75;73.14;101182.94;10506299;28;20386;-77
2021/11/23 07:48:38;;;;;;;3.47;2.15;;;;;;;1.98;70.98;101186.91;10503509;28;20413;-76
2021/11/23 07:53:40;;;;;;;3.33;2.17;;;;;;;2.11;70.69;101179.41;10503668;28;20083;-78
2021/11/23 07:58:42;;;;;;;2.60;1.92;;;;;;;2.37;69.39;101169.56;10488807;28;20041;-76
2021/11/23 08:03:44;;;;;;;2.88;1.70;;;;;;;2.67;68.05;101161.47;10505250;28;20041;-76
2021/11/23 08:08:46;;;;;;;2.17;1.50;;;;;;;2.98;66.07;101166.38;10506124;28;20063;-76
2021/11/23 08:13:47;;;;;;;1.90;1.25;;;;;;;3.20;64.44;101159.81;10487772;28;20047;-75
2021/11/23 08:18:50;;;;;;;2.13;1.30;;;;;;;3.33;62.97;101160.00;10504465;28;20110;-75
2021/11/23 08:23:51;;;;;;;2.45;1.30;;;;;;;3.31;64.09;101169.50;10503279;28;20128;-77
2021/11/23 08:28:53;;;;;;;2.33;1.20;;;;;;;3.24;64.54;101166.81;10504643;28;20048;-77
2021/11/23 08:33:55;;;;;;;12.10;2.10;;;;;;;3.39;63.94;101168.75;10508598;28;20040;-77
2021/11/23 08:38:58;;;;;;;1.98;1.20;;;;;;;3.46;64.60;101164.56;10512082;28;20097;-76
2021/11/23 08:43:59;;;;;;;2.47;1.30;;;;;;;3.52;65.43;101164.63;10492727;28;20051;-76
2021/11/23 08:49:03;;;;;;;3.72;1.30;;;;;;;3.68;64.70;101155.34;10510191;28;20119;-77
2021/11/23 08:54:06;;;;;;;1.88;1.15;;;;;;;3.58;66.50;101162.09;10493026;28;20040;-78
2021/11/23 08:59:11;;;;;;;3.97;1.40;;;;;;;3.79;65.35;101175.44;10511368;28;20055;-77
2021/11/23 09:04:13;;;;;;;1.90;1.27;;;;;;;3.79;66.31;101182.34;10511493;28;20071;-76
2021/11/23 09:09:15;;;;;;;3.05;1.23;;;;;;;3.81;67.37;101193.66;10511765;28;20051;-76
2021/11/23 09:14:17;;;;;;;2.25;1.50;;;;;;;4.00;65.98;101192.19;10510611;28;20063;-76
2021/11/23 09:19:19;;;;;;;2.35;1.70;;;;;;;4.13;66.04;101186.28;10491678;28;20552;-76
2021/11/23 09:24:22;;;;;;;3.45;1.20;;;;;;;4.11;68.11;101192.31;10511214;28;20110;-78
2021/11/23 09:29:24;;;;;;;1.85;1.35;;;;;;;4.11;67.84;101206.19;10510691;28;20087;-76
2021/11/23 09:34:26;;;;;;;4.70;1.60;;;;;;;4.19;66.94;101198.50;10491937;28;20033;-77
2021/11/23 09:39:29;;;;;;;3.92;1.55;;;;;;;4.37;66.28;101205.66;10510827;28;20049;-78
2021/11/23 09:44:36;;;;;;;4.80;1.63;;;;;;;4.15;67.82;101205.38;10474089;28;20049;-75
2021/11/23 09:49:38;;;;;;;3.55;1.70;;;;;;;4.28;67.04;101196.00;10490885;28;20051;-77
2021/11/23 09:54:40;;;;;;;3.10;1.50;;;;;;;4.45;66.21;101202.31;10509079;28;20048;-76
2021/11/23 09:59:42;;;;;;;3.35;1.80;;;;;;;4.50;65.88;101200.63;10508973;28;20461;-76
2021/11/23 10:05:16;;;;;;;5.55;2.53;;;;;;;4.44;66.29;101195.34;10507133;28;20036;-76
2021/11/23 10:10:20;;;;;;;7.35;3.08;;;;;;;4.42;67.23;101193.56;10363441;28;20455;-75
2021/11/23 10:15:26;;;;;;;9.02;4.95;;;;;;;4.45;66.75;101180.59;10363216;28;20157;-76
2021/11/23 10:20:37;;;;;;;13.85;6.72;;;;;;;4.36;67.77;101178.78;10382027;28;20056;-77
2021/11/23 10:25:39;;;;;;;12.20;6.43;;;;;;;4.41;67.57;101171.88;10380832;28;20570;-77
2021/11/23 10:30:49;;;;;;;10.48;7.63;;;;;;;4.45;68.42;101168.47;10379269;28;20064;-76
2021/11/23 10:35:52;;;;;;;;;;;;;;;4.57;68.21;101169.47;10379516;28;20045;-76
2021/11/23 10:40:59;;;;;;;5.70;2.63;;;;;;;4.72;68.08;101165.28;10362518;28;19959;-76
2021/11/23 10:46:01;;;;;;;6.07;2.53;;;;;;;4.84;67.82;101158.44;10478044;28;20052;-76
2021/11/23 10:51:10;;;;;;;5.07;2.45;;;;;;;4.95;68.00;101139.44;10487062;28;20135;-75
2021/11/23 10:56:16;;;;;;;5.32;1.90;;;;;;;4.98;68.74;101144.69;10505113;28;20127;-75
2021/11/23 11:01:19;;;;;;;8.23;2.55;;;;;;;5.00;69.80;101140.38;10505523;28;20123;-77
2021/11/23 11:06:22;;;;;;;5.78;2.00;;;;;;;5.05;70.09;101130.84;10486942;28;20067;-76
2021/11/23 11:11:24;;;;;;;8.18;2.63;;;;;;;5.13;70.72;101132.63;10503834;28;20252;-75
2021/11/23 11:16:26;;;;;;;6.40;2.40;;;;;;;5.27;70.06;101144.06;10503526;28;20437;-76
2021/11/23 11:21:28;;;;;;;5.97;3.45;;;;;;;5.40;70.17;101147.59;10487307;28;20490;-77
2021/11/23 11:26:38;;;;;;;5.80;2.60;;;;;;;5.41;70.23;101154.59;10505357;28;20094;-77
2021/11/23 11:31:43;;;;;;;3.88;1.80;;;;;;;5.34;71.14;101164.09;10487448;28;20049;-78
2021/11/23 11:36:47;;;;;;;5.55;2.38;;;;;;;5.46;70.33;101158.09;10486990;28;20128;-76
2021/11/23 11:41:48;;;;;;;5.88;2.95;;;;;;;5.50;69.62;101158.13;10504582;28;20044;-77
2021/11/23 11:47:09;;;;;;;3.63;2.47;;;;;;;5.39;70.57;101153.69;10504298;28;20037;-75
2021/11/23 11:52:11;;;;;;;6.82;2.63;;;;;;;5.45;70.51;101151.16;10488418;28;20448;-76
2021/11/23 11:57:30;;;;;;;3.95;1.85;;;;;;;5.53;70.66;101145.13;10502804;28;20068;-76
2021/11/23 12:02:32;;;;;;;4.68;2.55;;;;;;;5.35;72.50;101149.31;10503633;28;20112;-76
2021/11/23 12:07:45;;;;;;;6.70;3.55;;;;;;;5.18;75.43;101143.97;10504914;28;20048;-76
2021/11/23 12:12:56;;;;;;;5.95;3.20;;;;;;;5.12;75.47;101144.78;10511237;28;20119;-75
2021/11/23 12:18:13;;;;;;;4.00;3.20;;;;;;;5.01;78.92;101136.91;10494518;28;20055;-76
2021/11/23 12:23:23;;;;;;;;;;;;;;;5.04;78.63;101130.81;10514255;28;20064;-76
2021/11/23 12:28:29;;;;;;;5.05;3.55;;;;;;;5.15;78.58;101117.91;10493245;28;19978;-71
2021/11/23 12:33:31;;;;;;;6.25;3.67;;;;;;;5.01;79.19;101136.91;10509518;28;20044;-73
2021/11/23 12:38:34;;;;;;;8.90;3.80;;;;;;;5.13;77.92;101130.03;10510084;28;20044;-72
2021/11/23 12:43:37;;;;;;;7.32;4.60;;;;;;;5.23;78.13;101137.94;10508638;28;20041;-73
2021/11/23 12:48:41;;;;;;;8.95;5.75;;;;;;;5.23;78.79;101137.06;10489749;28;20052;-73
2021/11/23 12:54:07;;;;;;;10.50;5.75;;;;;;;4.86;82.01;101138.47;10509024;28;20423;-73
2021/11/23 12:59:27;;;;;;;11.07;8.17;;;;;;;5.14;81.14;101127.44;10508609;28;20480;-72
2021/11/23 13:04:40;;;;;;;15.20;11.40;;;;;;;5.07;82.33;101131.72;10508600;28;20051;-74
2021/11/23 13:09:48;;;;;;;14.93;13.43;;;;;;;5.17;81.98;101126.59;10508336;28;20489;-72
2021/11/23 13:14:58;;;;;;;9.07;8.27;;;;;;;5.09;83.75;101129.16;10507548;28;20036;-74
2021/11/23 13:19:59;;;;;;;12.75;10.95;;;;;;;5.04;84.30;101133.44;10505975;28;20064;-72
2021/11/23 13:25:02;;;;;;;12.45;11.13;;;;;;;5.23;84.87;101131.88;10506862;28;20040;-73
2021/11/23 13:30:34;;;;;;;15.32;12.32;;;;;;;4.98;86.64;101129.03;10507299;28;20036;-73
2021/11/23 13:35:58;;;;;;;9.15;7.32;;;;;;;5.03;87.40;101142.13;10485015;28;20146;-72
2021/11/23 13:41:08;;;;;;;10.70;6.30;;;;;;;4.95;87.58;101144.66;10506098;28;20041;-72
2021/11/23 13:46:11;;;;;;;8.07;5.72;;;;;;;5.05;86.87;101138.69;10506781;28;20040;-73
2021/11/23 13:51:17;;;;;;;6.78;5.88;;;;;;;4.96;87.64;101140.34;10470141;23;20120;-73
2021/11/23 13:56:21;;;;;;;6.37;3.93;;;;;;;5.23;86.14;101144.91;10461701;28;20037;-74
2021/11/23 14:01:24;;;;;;;8.77;5.43;;;;;;;5.37;85.45;101137.19;10443029;28;20049;-74
2021/11/23 14:06:26;;;;;;;6.55;5.82;;;;;;;5.35;85.18;101131.06;10460903;28;20045;-74
2021/11/23 14:11:28;;;;;;;11.40;7.60;;;;;;;5.26;85.58;101130.13;10459959;28;20052;-74
2021/11/23 14:16:30;;;;;;;8.07;6.22;;;;;;;5.14;86.55;101140.47;10460608;28;20072;-74
2021/11/23 14:21:32;;;;;;;8.43;6.25;;;;;;;5.36;85.39;101132.81;10461869;28;20084;-73
2021/11/23 14:26:36;;;;;;;6.75;5.00;;;;;;;5.27;85.78;101128.41;10460969;28;20107;-73
2021/11/23 14:31:39;;;;;;;9.70;6.13;;;;;;;5.21;85.86;101125.75;10460163;28;20513;-74
2021/11/23 14:36:46;;;;;;;6.28;5.65;;;;;;;5.25;85.81;101132.72;10458737;28;20045;-74
2021/11/23 14:41:49;;;;;;;8.98;5.63;;;;;;;5.26;85.89;101124.91;10441414;28;20049;-73
2021/11/23 14:46:53;;;;;;;8.57;5.82;;;;;;;5.03;86.46;101137.78;10458912;28;20037;-74
2021/11/23 14:52:01;;;;;;;5.85;5.35;;;;;;;5.19;86.01;101130.09;10441342;28;20049;-74
2021/11/23 14:57:03;;;;;;;5.53;4.85;;;;;;;5.18;85.60;101131.84;10440557;28;20045;-74
2021/11/23 15:02:05;;;;;;;8.20;6.47;;;;;;;5.11;85.88;101143.06;10458240;28;20502;-74
2021/11/23 15:07:07;;;;;;;6.40;5.90;;;;;;;5.01;86.42;101142.13;10457382;28;20386;-73
2021/11/23 15:12:12;;;;;;;7.88;6.72;;;;;;;4.83;87.82;101154.97;10456834;28;20041;-74
2021/11/23 15:17:14;;;;;;;7.55;6.80;;;;;;;4.71;88.46;101150.50;10456477;28;20041;-73
2021/11/23 15:22:16;;;;;;;8.55;6.95;;;;;;;4.86;88.00;101154.13;10456834;28;20048;-74
2021/11/23 15:27:18;;;;;;;8.68;7.78;;;;;;;4.73;88.45;101160.94;10439441;28;20399;-73
2021/11/23 15:32:20;;;;;;;7.93;6.88;;;;;;;5.16;86.61;101164.81;10438153;28;20124;-74
2021/11/23 15:37:22;;;;;;;8.02;7.22;;;;;;;5.01;87.27;101156.88;10437884;28;20463;-75
2021/11/23 15:42:24;;;;;;;8.27;7.47;;;;;;;5.01;87.35;101151.66;10455974;28;20045;-74
2021/11/23 15:47:29;;;;;;;10.40;9.48;;;;;;;4.98;87.79;101162.91;10438611;28;20156;-74
2021/11/23 15:52:31;;;;;;;9.88;8.77;;;;;;;5.03;86.99;101160.34;10455247;28;20358;-74
2021/11/23 15:57:34;;;;;;;11.30;10.20;;;;;;;4.85;88.68;101158.47;10436481;28;20037;-74
2021/11/23 16:02:35;;;;;;;12.18;10.25;;;;;;;4.82;89.52;101166.22;10454887;28;20461;-75
2021/11/23 16:07:38;;;;;;;13.00;11.77;;;;;;;4.67;90.33;101166.97;10455172;28;20084;-74
2021/11/23 16:12:40;;;;;;;14.45;12.95;;;;;;;4.75;90.53;101162.72;10455355;28;20056;-73
2021/11/23 16:17:42;;;;;;;16.17;13.63;;;;;;;4.95;91.52;101165.50;10437225;28;20117;-77
2021/11/23 16:22:44;;;;;;;16.17;12.55;;;;;;;5.07;91.18;101170.81;10455291;28;20439;-76
2021/11/23 16:27:48;;;;;;;21.85;14.30;;;;;;;5.03;91.58;101174.25;10454759;28;20118;-76
2021/11/23 16:32:51;;;;;;;15.25;13.70;;;;;;;4.76;93.07;101167.06;10437590;28;20401;-76
2021/11/23 16:37:53;;;;;;;17.08;14.93;;;;;;;4.85;93.65;101166.28;10420496;28;20044;-76
2021/11/23 16:42:54;;;;;;;21.50;15.38;;;;;;;4.69;94.43;101167.88;10437335;28;20139;-76
2021/11/23 16:47:56;;;;;;;21.20;15.23;;;;;;;4.82;94.08;101161.03;10454730;28;20075;-76
2021/11/23 16:52:58;;;;;;;18.23;16.20;;;;;;;4.83;95.27;101162.78;10439047;28;20052;-75
2021/11/23 16:58:00;;;;;;;21.73;17.15;;;;;;;4.63;96.54;101157.38;10466443;28;20037;-76
2021/11/23 17:03:02;;;;;;;20.70;18.52;;;;;;;4.62;95.99;101165.16;10465600;28;20065;-77
2021/11/23 17:08:04;;;;;;;22.48;17.73;;;;;;;4.76;95.36;101166.19;10465230;28;20092;-76
2021/11/23 17:13:06;;;;;;;23.10;18.42;;;;;;;4.84;95.46;101155.84;10446119;28;20506;-76
2021/11/23 17:18:08;;;;;;;26.30;18.88;;;;;;;4.88;94.83;101155.03;10462987;28;20051;-75
2021/11/23 17:23:12;;;;;;;21.10;18.92;;;;;;;4.82;94.36;101158.41;10463243;28;20447;-76
2021/11/23 17:28:15;;;;;;;27.75;20.30;;;;;;;4.97;94.57;101157.72;10462828;28;20048;-77
2021/11/23 17:33:17;;;;;;;30.15;19.90;;;;;;;4.85;94.61;101152.38;10462499;28;20497;-77
2021/11/23 17:38:19;;;;;;;22.80;18.75;;;;;;;4.95;93.55;101157.66;10462668;28;20052;-76
2021/11/23 17:43:22;;;;;;;23.80;19.50;;;;;;;4.91;94.16;101155.91;10443627;28;20103;-77
2021/11/23 17:48:24;;;;;;;22.73;19.75;;;;;;;4.96;93.20;101155.97;10444077;28;20077;-76
2021/11/23 17:53:26;;;;;;;24.73;20.35;;;;;;;4.82;93.99;101161.03;10461654;28;20047;-76
2021/11/23 17:58:29;;;;;;;25.27;21.05;;;;;;;4.92;93.63;101159.41;10462590;28;20195;-77
2021/11/23 18:03:32;;;;;;;21.20;19.10;;;;;;;4.90;92.86;101164.56;10461766;28;20074;-76
2021/11/23 18:08:36;;;;;;;23.63;21.20;;;;;;;4.67;94.66;101166.97;10459709;28;20060;-77
2021/11/23 18:13:40;;;;;;;24.75;21.70;;;;;;;4.64;95.82;101173.88;10461064;28;20140;-77
2021/11/23 18:18:42;;;;;;;23.23;20.90;;;;;;;4.76;95.61;101168.78;10461221;28;20405;-77
2021/11/23 18:23:43;;;;;;;21.60;19.63;;;;;;;4.79;95.66;101161.88;10459672;28;20055;-76
2021/11/23 18:28:45;;;;;;;22.55;20.45;;;;;;;4.81;94.74;101157.53;10459451;28;20091;-76
2021/11/23 18:33:47;;;;;;;23.17;20.83;;;;;;;4.99;94.14;101161.19;10460797;28;20529;-76
2021/11/23 18:38:49;;;;;;;27.65;21.83;;;;;;;4.75;95.21;101167.03;10440326;28;20063;-76
2021/11/23 18:43:58;;;;;;;23.58;21.23;;;;;;;4.83;95.78;101157.59;10440883;28;20045;-76
2021/11/23 18:49:00;;;;;;;23.45;21.05;;;;;;;4.96;94.21;101159.44;10459060;28;20359;-76
2021/11/23 18:54:04;;;;;;;23.20;21.15;;;;;;;4.76;94.48;101169.66;10441487;28;20044;-76
2021/11/23 18:59:07;;;;;;;23.52;21.52;;;;;;;5.06;92.41;101161.25;10440919;28;20044;-78
2021/11/23 19:04:09;;;;;;;22.80;20.77;;;;;;;5.15;90.99;101164.81;10458349;28;20087;-76
2021/11/23 19:09:15;;;;;;;23.02;20.92;;;;;;;5.21;91.57;101162.25;10424892;28;20559;-76
2021/11/23 19:14:17;;;;;;;17.90;16.10;;;;;;;5.31;90.72;101164.97;10416280;28;20037;-76
2021/11/23 19:19:19;;;;;;;23.05;20.95;;;;;;;5.21;90.92;101159.63;10399109;28;20084;-75
2021/11/23 19:24:20;;;;;;;22.83;21.00;;;;;;;5.24;90.85;101159.66;10416968;28;20553;-75
2021/11/23 19:29:22;;;;;;;23.40;20.95;;;;;;;5.27;90.55;101163.19;10416175;28;20128;-76
2021/11/23 19:34:24;;;;;;;23.98;21.85;;;;;;;5.23;90.81;101165.75;10417243;28;20502;-76
2021/11/23 19:39:26;;;;;;;23.17;21.05;;;;;;;5.31;89.93;101153.63;10417419;28;20080;-76
2021/11/23 19:44:28;;;;;;;23.27;21.08;;;;;;;5.29;90.13;101145.81;10417880;28;20034;-76
2021/11/23 19:49:30;;;;;;;26.42;23.67;;;;;;;5.11;91.26;101145.66;10460721;23;20044;-74
2021/11/23 19:54:32;;;;;;;26.35;23.88;;;;;;;4.92;92.56;101142.03;10544425;28;20048;-73
2021/11/23 19:59:34;;;;;;;25.65;23.65;;;;;;;5.14;91.61;101152.66;10528091;28;20044;-73
2021/11/23 20:04:36;;;;;;;26.50;24.10;;;;;;;5.25;91.10;101153.59;10545658;28;20064;-74
2021/11/23 20:09:37;;;;;;;26.45;24.40;;;;;;;5.13;91.85;101159.56;10528270;28;20050;-74
2021/11/23 20:14:40;;;;;;;26.23;23.90;;;;;;;5.28;90.89;101154.50;10525715;28;20040;-74
2021/11/23 20:19:45;;;;;;;28.13;25.35;;;;;;;5.16;91.18;101156.13;10526324;28;20056;-75
2021/11/23 20:24:47;;;;;;;34.17;27.33;;;;;;;5.13;91.43;101154.34;10543448;28;20037;-74
2021/11/23 20:29:49;;;;;;;29.23;26.33;;;;;;;5.20;91.79;101150.06;10512657;28;20056;-73
2021/11/23 20:34:54;;;;;;;30.27;26.23;;;;;;;5.14;91.44;101137.88;10533141;28;20048;-73
2021/11/23 20:39:56;;;;;;;29.85;26.52;;;;;;;5.13;91.51;101141.31;10534428;28;20120;-75
2021/11/23 20:44:57;;;;;;;30.92;27.85;;;;;;;5.13;91.71;101150.88;10552061;28;20039;-74
2021/11/23 20:50:01;;;;;;;28.25;25.50;;;;;;;5.19;90.85;101140.53;10552124;28;20044;-75
2021/11/23 20:55:04;;;;;;;30.95;26.70;;;;;;;5.06;91.65;101136.94;10550388;28;20461;-75
2021/11/23 21:00:09;;;;;;;26.90;24.60;;;;;;;5.08;91.88;101137.81;10531717;28;20070;-74
2021/11/23 21:05:11;;;;;;;26.92;24.27;;;;;;;5.14;91.08;101137.00;10553050;28;20434;-73
2021/11/23 21:10:14;;;;;;;26.08;23.20;;;;;;;5.18;90.74;101129.22;10517035;28;20047;-74
2021/11/23 21:15:16;;;;;;;25.95;23.35;;;;;;;5.22;90.32;101131.00;10532903;28;20115;-73
2021/11/23 21:20:21;;;;;;;23.35;21.20;;;;;;;5.11;90.33;101127.41;10516617;28;20052;-74
2021/11/23 21:25:26;;;;;;;24.50;22.33;;;;;;;5.04;90.81;101116.06;10532560;28;20347;-74
2021/11/23 21:30:29;;;;;;;24.60;22.17;;;;;;;5.11;90.74;101114.38;10516484;28;20197;-74
2021/11/23 21:35:31;;;;;;;26.75;23.10;;;;;;;5.08;90.83;101122.16;10532648;28;20036;-75
2021/11/23 21:40:33;;;;;;;24.35;22.05;;;;;;;5.17;90.03;101113.56;10530219;28;20047;-74
2021/11/23 21:50:46;;;;;;;25.85;23.52;;;;;;;5.14;89.83;101111.81;10548588;28;20069;-73
2021/11/23 21:55:51;;;;;;;26.08;23.48;;;;;;;5.11;89.82;101109.19;10548340;28;20047;-73
2021/11/23 22:00:53;;;;;;;23.25;21.13;;;;;;;5.22;89.13;101112.75;10547907;28;20044;-73
2021/11/23 22:06:00;;;;;;;;;;;;;;;5.10;89.50;101106.56;10548996;28;20046;-72
2021/11/23 22:11:13;;;;;;;21.80;19.95;;;;;;;5.27;88.53;101112.78;10545833;28;19959;-72
2021/11/23 22:16:18;;;;;;;21.38;19.67;;;;;;;5.14;88.96;101116.16;10544853;28;20577;-72
2021/11/23 22:21:20;;;;;;;21.92;20.23;;;;;;;5.09;89.61;101123.94;10545130;28;20126;-75
2021/11/23 22:26:22;;;;;;;19.65;18.15;;;;;;;5.02;90.36;101120.41;10545704;28;20047;-73
2021/11/23 22:31:24;;;;;;;19.33;17.67;;;;;;;5.12;89.10;101118.72;10544091;28;20036;-74
2021/11/23 22:36:26;;;;;;;17.23;15.95;;;;;;;5.24;88.19;101115.34;10525298;28;20047;-73
2021/11/23 22:41:28;;;;;;;19.88;17.95;;;;;;;5.02;89.42;101128.22;10543935;28;20135;-73
2021/11/23 22:46:30;;;;;;;18.15;16.75;;;;;;;5.29;87.81;101126.69;10543425;28;20044;-73
2021/11/23 22:51:31;;;;;;;18.88;17.38;;;;;;;5.30;87.98;101118.00;10524608;28;20078;-73
2021/11/23 22:56:33;;;;;;;18.33;16.80;;;;;;;5.20;88.30;101111.84;10542261;28;20040;-73
2021/11/23 23:01:35;;;;;;;19.33;17.55;;;;;;;5.18;89.17;101104.88;10543776;28;20370;-73
2021/11/23 23:06:37;;;;;;;19.05;17.45;;;;;;;5.38;87.77;101100.66;10544584;28;20398;-72
2021/11/23 23:11:39;;;;;;;19.55;17.92;;;;;;;5.29;87.82;101098.88;10543584;28;20473;-75
2021/11/23 23:16:41;;;;;;;20.20;18.48;;;;;;;5.45;87.59;101104.22;10543140;28;20059;-73
2021/11/23 23:21:43;;;;;;;20.30;18.65;;;;;;;5.01;89.28;101090.00;10542999;28;20501;-74
2021/11/23 23:26:45;;;;;;;20.70;19.13;;;;;;;5.10;88.73;101093.53;10542568;28;20037;-74